Time;durP1;ratioP1;P1;durP2;ratioP2;P2;SDS_P1;SDS_P2;PMS_P1;PMS_P2;Temp;Humidity;BMP_temperature;BMP_pressure;BME280_temperature;BME280_humidity;BME280_pressure;Samples;Min_cycle;Max_cycle;Signal;HPM_P1;HPM_P2
2022/05/18 00:02:04;;;;;;;;;;;;;;;;;;4992057;28;19921;-60
2022/05/18 00:04:30;;;;;;;;;;;;;;;;;;4984792;28;20421;-61
2022/05/18 00:06:55;;;;;;;;;;;;;;;;;;4984818;28;20008;-61
2022/05/18 00:09:20;;;;;;;;;;;;;;;;;;4992538;28;19922;-61
2022/05/18 00:11:45;;;;;;;;;;;;;;;;;;4987577;28;19948;-61
2022/05/18 00:14:10;;;;;;;;;;;;;;;;;;4994488;28;20449;-60
2022/05/18 00:16:36;;;;;;;;;;;;;;;;;;4989126;28;19917;-60
2022/05/18 00:19:01;;;;;;;;;;;;;;;;;;4986895;28;19921;-61
2022/05/18 00:21:26;;;;;;;;;;;;;;;;;;5011230;28;19914;-60
2022/05/18 00:23:52;;;;;;;;;;;;;;;;;;4990393;28;20660;-60
2022/05/18 00:26:17;;;;;;;;;;;;;;;;;;4995087;28;19913;-60
2022/05/18 00:28:42;;;;;;;;;;;;;;;;;;4988316;28;19917;-61
2022/05/18 00:31:07;;;;;;;;;;;;;;;;;;4989443;28;19960;-61
2022/05/18 00:33:32;;;;;;;;;;;;;;;;;;4994423;28;19921;-60
2022/05/18 00:35:58;;;;;;;;;;;;;;;;;;4985379;28;20009;-59
2022/05/18 00:38:23;;;;;;;;;;;;;;;;;;4995159;28;19914;-60
2022/05/18 00:40:48;;;;;;;;;;;;;;;;;;4987582;28;19923;-60
2022/05/18 00:43:13;;;;;;;;;;;;;;;;;;4989425;28;19961;-60
2022/05/18 00:45:38;;;;;;;;;;;;;;;;;;4994133;28;19921;-60
2022/05/18 00:48:05;;;;;;;;;;;;;;;;;;4988586;28;19921;-60
2022/05/18 00:50:30;;;;;;;;;;;;;;;;;;4998989;28;19999;-60
2022/05/18 00:52:56;;;;;;;;;;;;;;;;;;4990806;28;20016;-60
2022/05/18 00:55:21;;;;;;;;;;;;;;;;;;4994641;28;19918;-61
2022/05/18 00:57:46;;;;;;;;;;;;;;;;;;4993688;28;19918;-60
2022/05/18 01:00:12;;;;;;;;;;;;;;;;;;4994122;28;19917;-61
2022/05/18 01:02:37;;;;;;;;;;;;;;;;;;4995337;28;19926;-61
2022/05/18 01:05:02;;;;;;;;;;;;;;;;;;4992118;28;20012;-60
2022/05/18 01:07:27;;;;;;;;;;;;;;;;;;4994962;28;19970;-59
2022/05/18 01:09:52;;;;;;;;;;;;;;;;;;4994937;28;20294;-58
2022/05/18 01:12:18;;;;;;;;;;;;;;;;;;4993231;28;20293;-61
2022/05/18 01:14:44;;;;;;;;;;;;;;;;;;4994075;28;20469;-59
2022/05/18 01:17:09;;;;;;;;;;;;;;;;;;4991862;28;19917;-59
2022/05/18 01:19:35;;;;;;;;;;;;;;;;;;4990404;28;19921;-59
2022/05/18 01:22:00;;;;;;;;;;;;;;;;;;4994854;28;19918;-59
2022/05/18 01:24:25;;;;;;;;;;;;;;;;;;4994012;28;20658;-60
2022/05/18 01:26:50;;;;;;;;;;;;;;;;;;4992927;28;19917;-60
2022/05/18 01:29:16;;;;;;;;;;;;;;;;;;5006461;28;20498;-61
2022/05/18 01:31:41;;;;;;;;;;;;;;;;;;4992313;28;19917;-60
2022/05/18 01:34:06;;;;;;;;;;;;;;;;;;4991887;28;20335;-61
2022/05/18 01:36:31;;;;;;;;;;;;;;;;;;4992445;28;20370;-61
2022/05/18 01:38:56;;;;;;;;;;;;;;;;;;4995459;28;19921;-61
2022/05/18 01:41:22;;;;;;;;;;;;;;;;;;4992894;28;19924;-59
2022/05/18 01:43:47;;;;;;;;;;;;;;;;;;4992291;28;19917;-61
2022/05/18 01:46:12;;;;;;;;;;;;;;;;;;4992452;28;19968;-60
2022/05/18 01:48:38;;;;;;;;;;;;;;;;;;4993569;28;19921;-60
2022/05/18 01:51:03;;;;;;;;;;;;;;;;;;4994215;28;19921;-59
2022/05/18 01:53:28;;;;;;;;;;;;;;;;;;4994455;28;19960;-60
2022/05/18 01:55:53;;;;;;;;;;;;;;;;;;4992463;28;20202;-60
2022/05/18 01:58:18;;;;;;;;;;;;;;;;;;4992466;28;19984;-60
2022/05/18 02:00:44;;;;;;;;;;;;;;;;;;4993063;28;20325;-60
2022/05/18 02:03:09;;;;;;;;;;;;;;;;;;4990031;28;19917;-59
2022/05/18 02:05:34;;;;;;;;;;;;;;;;;;5007235;28;19918;-60
2022/05/18 02:08:00;;;;;;;;;;;;;;;;;;4992808;28;19918;-61
2022/05/18 02:10:25;;;;;;;;;;;;;;;;;;4994465;28;20025;-61
2022/05/18 02:12:50;;;;;;;;;;;;;;;;;;4996958;28;19930;-61
2022/05/18 02:15:15;;;;;;;;;;;;;;;;;;5005587;28;19924;-60
2022/05/18 02:17:41;;;;;;;;;;;;;;;;;;4992758;28;19917;-63
2022/05/18 02:20:07;;;;;;;;;;;;;;;;;;4990409;28;20004;-59
2022/05/18 02:22:32;;;;;;;;;;;;;;;;;;4995081;28;20071;-59
2022/05/18 02:24:57;;;;;;;;;;;;;;;;;;4992895;28;20054;-59
2022/05/18 02:27:22;;;;;;;;;;;;;;;;;;4992587;28;19917;-61
2022/05/18 02:29:47;;;;;;;;;;;;;;;;;;4993930;28;19921;-60
2022/05/18 02:32:13;;;;;;;;;;;;;;;;;;4993391;28;19937;-60
2022/05/18 02:34:38;;;;;;;;;;;;;;;;;;4990490;28;19924;-60
2022/05/18 02:37:03;;;;;;;;;;;;;;;;;;4993865;28;19940;-60
2022/05/18 02:39:28;;;;;;;;;;;;;;;;;;4995563;28;20547;-61
2022/05/18 02:41:53;;;;;;;;;;;;;;;;;;4991496;28;19980;-60
2022/05/18 02:44:19;;;;;;;;;;;;;;;;;;5009880;28;19952;-60
2022/05/18 02:46:44;;;;;;;;;;;;;;;;;;4992841;28;19933;-60
2022/05/18 02:49:09;;;;;;;;;;;;;;;;;;4992482;28;21499;-60
2022/05/18 02:51:34;;;;;;;;;;;;;;;;;;4994535;28;19925;-60
2022/05/18 02:54:01;;;;;;;;;;;;;;;;;;4993506;28;19913;-60
2022/05/18 02:56:26;;;;;;;;;;;;;;;;;;4989756;28;19918;-59
2022/05/18 02:58:52;;;;;;;;;;;;;;;;;;4989900;28;19918;-60
2022/05/18 03:01:18;;;;;;;;;;;;;;;;;;4995317;28;19917;-60
2022/05/18 03:03:44;;;;;;;;;;;;;;;;;;4993933;28;19928;-60
2022/05/18 03:06:10;;;;;;;;;;;;;;;;;;4998266;28;19918;-60
2022/05/18 03:08:35;;;;;;;;;;;;;;;;;;4998428;28;20336;-59
2022/05/18 03:11:00;;;;;;;;;;;;;;;;;;4997098;28;19921;-59
2022/05/18 03:13:25;;;;;;;;;;;;;;;;;;4994195;28;20384;-61
2022/05/18 03:15:50;;;;;;;;;;;;;;;;;;4994102;28;20314;-60
2022/05/18 03:18:16;;;;;;;;;;;;;;;;;;4997564;28;20374;-60
2022/05/18 03:23:34;;;;;;;;;;;;;;;;;;4997209;28;19922;-60
2022/05/18 03:26:00;;;;;;;;;;;;;;;;;;5006278;28;20004;-60
2022/05/18 03:28:25;;;;;;;;;;;;;;;;;;4997905;28;20003;-59
2022/05/18 03:30:50;;;;;;;;;;;;;;;;;;4997738;28;19917;-60
2022/05/18 03:33:15;;;;;;;;;;;;;;;;;;4996974;28;19931;-59
2022/05/18 03:35:40;;;;;;;;;;;;;;;;;;4995330;28;20349;-60
2022/05/18 03:38:06;;;;;;;;;;;;;;;;;;4995296;28;19917;-59
2022/05/18 03:40:31;;;;;;;;;;;;;;;;;;4996903;28;20202;-60
2022/05/18 03:42:56;;;;;;;;;;;;;;;;;;4994613;28;19921;-60
2022/05/18 03:45:21;;;;;;;;;;;;;;;;;;4995933;28;19917;-60
2022/05/18 03:47:46;;;;;;;;;;;;;;;;;;4995461;28;20349;-61
2022/05/18 03:50:13;;;;;;;;;;;;;;;;;;4994320;28;20409;-59
2022/05/18 03:52:38;;;;;;;;;;;;;;;;;;5000605;28;19921;-60
2022/05/18 03:55:03;;;;;;;;;;;;;;;;;;4993658;28;19914;-60
2022/05/18 03:57:28;;;;;;;;;;;;;;;;;;4999392;28;19918;-59
2022/05/18 03:59:53;;;;;;;;;;;;;;;;;;4998124;28;19914;-59
2022/05/18 04:02:19;;;;;;;;;;;;;;;;;;4995739;28;19917;-60
2022/05/18 04:04:44;;;;;;;;;;;;;;;;;;4992551;28;20061;-59
2022/05/18 04:07:09;;;;;;;;;;;;;;;;;;4997738;28;19917;-60
2022/05/18 04:09:34;;;;;;;;;;;;;;;;;;4994806;28;19925;-60
2022/05/18 04:12:01;;;;;;;;;;;;;;;;;;4997858;28;19953;-59
2022/05/18 04:14:26;;;;;;;;;;;;;;;;;;4998637;28;19918;-59
2022/05/18 04:16:51;;;;;;;;;;;;;;;;;;4995772;28;19925;-60
2022/05/18 04:19:16;;;;;;;;;;;;;;;;;;4993946;28;19918;-60
2022/05/18 04:21:42;;;;;;;;;;;;;;;;;;4996918;28;19917;-59
2022/05/18 04:24:07;;;;;;;;;;;;;;;;;;4999170;28;19917;-60
2022/05/18 04:26:32;;;;;;;;;;;;;;;;;;5007405;28;20298;-60
2022/05/18 04:28:57;;;;;;;;;;;;;;;;;;4996013;28;20007;-59
2022/05/18 04:31:22;;;;;;;;;;;;;;;;;;4993912;28;19917;-60
2022/05/18 04:33:48;;;;;;;;;;;;;;;;;;4994539;28;20256;-59
2022/05/18 04:36:13;;;;;;;;;;;;;;;;;;4992125;28;19975;-59
2022/05/18 04:38:38;;;;;;;;;;;;;;;;;;4992640;28;19919;-60
2022/05/18 04:41:03;;;;;;;;;;;;;;;;;;4995683;28;20716;-60
2022/05/18 04:43:32;;;;;;;;;;;;;;;;;;4995015;28;20458;-59
2022/05/18 04:45:57;;;;;;;;;;;;;;;;;;4994837;28;19932;-60
2022/05/18 04:48:24;;;;;;;;;;;;;;;;;;4993266;28;19921;-59
2022/05/18 04:50:49;;;;;;;;;;;;;;;;;;4993163;28;19953;-60
2022/05/18 04:53:15;;;;;;;;;;;;;;;;;;5010776;28;20015;-60
2022/05/18 04:55:40;;;;;;;;;;;;;;;;;;4994019;28;19945;-60
2022/05/18 04:58:05;;;;;;;;;;;;;;;;;;5004159;28;19949;-60
2022/05/18 05:00:30;;;;;;;;;;;;;;;;;;4994505;28;20011;-60
2022/05/18 05:02:57;;;;;;;;;;;;;;;;;;4994325;28;19917;-60
2022/05/18 05:05:22;;;;;;;;;;;;;;;;;;4994521;28;19924;-60
2022/05/18 05:07:48;;;;;;;;;;;;;;;;;;4996301;28;19918;-60
2022/05/18 05:10:14;;;;;;;;;;;;;;;;;;4993805;28;20302;-59
2022/05/18 05:12:39;;;;;;;;;;;;;;;;;;4994809;28;19924;-60
2022/05/18 05:15:04;;;;;;;;;;;;;;;;;;4991490;28;19960;-61
2022/05/18 05:17:29;;;;;;;;;;;;;;;;;;5001428;28;19917;-61
2022/05/18 05:19:54;;;;;;;;;;;;;;;;;;4993121;28;20318;-61
2022/05/18 05:22:20;;;;;;;;;;;;;;;;;;4997103;28;19917;-60
2022/05/18 05:24:45;;;;;;;;;;;;;;;;;;4995500;28;19956;-59
2022/05/18 05:27:10;;;;;;;;;;;;;;;;;;4992390;28;20033;-58
2022/05/18 05:29:35;;;;;;;;;;;;;;;;;;4991016;28;19921;-59
2022/05/18 05:32:00;;;;;;;;;;;;;;;;;;4994639;28;19921;-60
2022/05/18 05:34:26;;;;;;;;;;;;;;;;;;4994994;28;20072;-60
2022/05/18 05:36:51;;;;;;;;;;;;;;;;;;4992804;28;19913;-61
2022/05/18 05:39:18;;;;;;;;;;;;;;;;;;4995005;28;19923;-60
2022/05/18 05:41:44;;;;;;;;;;;;;;;;;;4978699;28;19918;-60
2022/05/18 05:44:10;;;;;;;;;;;;;;;;;;5001192;28;20369;-61
2022/05/18 05:46:35;;;;;;;;;;;;;;;;;;4994994;28;20607;-59
2022/05/18 05:49:01;;;;;;;;;;;;;;;;;;4992884;28;20278;-59
2022/05/18 05:51:26;;;;;;;;;;;;;;;;;;4991913;28;19918;-60
2022/05/18 05:53:51;;;;;;;;;;;;;;;;;;4966625;28;20024;-61
2022/05/18 05:56:16;;;;;;;;;;;;;;;;;;4981337;28;19914;-60
2022/05/18 05:58:43;;;;;;;;;;;;;;;;;;4983951;28;20523;-62
2022/05/18 06:01:08;;;;;;;;;;;;;;;;;;4985995;28;19918;-60
2022/05/18 06:03:33;;;;;;;;;;;;;;;;;;4989830;28;20329;-61
2022/05/18 06:05:59;;;;;;;;;;;;;;;;;;4988933;28;20548;-59
2022/05/18 06:08:24;;;;;;;;;;;;;;;;;;5001330;28;20382;-60
2022/05/18 06:10:49;;;;;;;;;;;;;;;;;;4998439;28;20007;-60
2022/05/18 06:13:14;;;;;;;;;;;;;;;;;;4985514;28;19922;-59
2022/05/18 06:15:39;;;;;;;;;;;;;;;;;;5007279;28;19917;-59
2022/05/18 06:18:05;;;;;;;;;;;;;;;;;;4989376;28;20476;-59
2022/05/18 06:20:30;;;;;;;;;;;;;;;;;;4989900;28;19969;-60
2022/05/18 06:22:56;;;;;;;;;;;;;;;;;;4987915;28;20008;-60
2022/05/18 06:25:21;;;;;;;;;;;;;;;;;;4985652;28;19972;-60
2022/05/18 06:27:46;;;;;;;;;;;;;;;;;;4988906;28;19918;-61
2022/05/18 06:30:11;;;;;;;;;;;;;;;;;;4990501;28;19922;-59
2022/05/18 06:32:37;;;;;;;;;;;;;;;;;;4986592;28;20703;-59
2022/05/18 06:35:02;;;;;;;;;;;;;;;;;;4992282;28;19913;-59
2022/05/18 06:37:27;;;;;;;;;;;;;;;;;;4989271;28;19917;-59
2022/05/18 06:39:52;;;;;;;;;;;;;;;;;;4994452;28;19918;-59
2022/05/18 06:42:18;;;;;;;;;;;;;;;;;;4989569;28;20004;-61
2022/05/18 06:44:44;;;;;;;;;;;;;;;;;;5000654;28;19922;-61
2022/05/18 06:47:09;;;;;;;;;;;;;;;;;;4999288;28;19968;-60
2022/05/18 06:49:34;;;;;;;;;;;;;;;;;;4987728;28;20012;-60
2022/05/18 06:52:00;;;;;;;;;;;;;;;;;;4994658;28;19921;-61
2022/05/18 06:54:25;;;;;;;;;;;;;;;;;;4991985;28;19925;-60
2022/05/18 06:56:50;;;;;;;;;;;;;;;;;;4986863;28;19914;-60
2022/05/18 06:59:16;;;;;;;;;;;;;;;;;;4994503;28;19940;-60
2022/05/18 07:01:41;;;;;;;;;;;;;;;;;;4988544;28;19922;-60
2022/05/18 07:04:06;;;;;;;;;;;;;;;;;;4989289;28;19956;-60
2022/05/18 07:06:32;;;;;;;;;;;;;;;;;;4990021;28;20034;-60
2022/05/18 07:08:57;;;;;;;;;;;;;;;;;;4988527;28;20393;-61
2022/05/18 07:11:22;;;;;;;;;;;;;;;;;;4995693;28;20001;-60
2022/05/18 07:13:51;;;;;;;;;;;;;;;;;;4990238;28;19953;-62
2022/05/18 07:16:16;;;;;;;;;;;;;;;;;;4988489;28;20422;-61
2022/05/18 07:18:42;;;;;;;;;;;;;;;;;;4991578;28;20414;-61
2022/05/18 07:21:07;;;;;;;;;;;;;;;;;;4988020;28;19925;-62
2022/05/18 07:23:32;;;;;;;;;;;;;;;;;;4986612;28;20433;-59
2022/05/18 07:25:57;;;;;;;;;;;;;;;;;;4985977;28;19917;-60
2022/05/18 07:28:22;;;;;;;;;;;;;;;;;;4987913;28;20456;-60
2022/05/18 07:30:48;;;;;;;;;;;;;;;;;;4995590;28;19928;-61
2022/05/18 07:33:13;;;;;;;;;;;;;;;;;;4986481;28;19917;-60
2022/05/18 07:35:38;;;;;;;;;;;;;;;;;;4992502;28;19917;-60
2022/05/18 07:38:03;;;;;;;;;;;;;;;;;;4984778;28;19913;-60
2022/05/18 07:40:29;;;;;;;;;;;;;;;;;;4985124;28;19917;-61
2022/05/18 07:42:56;;;;;;;;;;;;;;;;;;4992834;28;19956;-61
2022/05/18 07:45:21;;;;;;;;;;;;;;;;;;4986107;28;20395;-63
2022/05/18 07:47:46;;;;;;;;;;;;;;;;;;4996069;28;20355;-62
2022/05/18 07:50:12;;;;;;;;;;;;;;;;;;4985666;28;20044;-60
2022/05/18 07:52:38;;;;;;;;;;;;;;;;;;4987260;28;19937;-60
2022/05/18 07:55:03;;;;;;;;;;;;;;;;;;4995758;28;19917;-61
2022/05/18 07:57:28;;;;;;;;;;;;;;;;;;4989354;28;20047;-61
2022/05/18 07:59:53;;;;;;;;;;;;;;;;;;4995845;28;19924;-60
2022/05/18 08:02:18;;;;;;;;;;;;;;;;;;4982557;28;19913;-61
2022/05/18 08:04:43;;;;;;;;;;;;;;;;;;4990694;28;20314;-61
2022/05/18 08:07:09;;;;;;;;;;;;;;;;;;4998338;28;19920;-61
2022/05/18 08:15:05;;;;;;;;;;;;;;;;;;4984785;28;19929;-61
2022/05/18 08:15:06;;;;;;;;;;;;;;;;;;4988726;28;19972;-60
2022/05/18 08:17:31;;;;;;;;;;;;;;;;;;4988139;28;20533;-60
2022/05/18 08:19:56;;;;;;;;;;;;;;;;;;4992942;28;20032;-61
2022/05/18 08:22:22;;;;;;;;;;;;;;;;;;4987334;28;20334;-60
2022/05/18 08:24:47;;;;;;;;;;;;;;;;;;4987986;28;19922;-62
2022/05/18 08:27:13;;;;;;;;;;;;;;;;;;4992991;28;19924;-61
2022/05/18 08:29:38;;;;;;;;;;;;;;;;;;4989216;28;20001;-61
2022/05/18 08:32:03;;;;;;;;;;;;;;;;;;4991612;28;21184;-62
2022/05/18 08:34:28;;;;;;;;;;;;;;;;;;4987743;28;19917;-61
2022/05/18 08:36:53;;;;;;;;;;;;;;;;;;4986565;28;19918;-61
2022/05/18 08:39:19;;;;;;;;;;;;;;;;;;4991639;28;20033;-60
2022/05/18 08:41:47;;;;;;;;;;;;;;;;;;5002101;28;19925;-61
2022/05/18 08:44:12;;;;;;;;;;;;;;;;;;4990307;28;19917;-61
2022/05/18 08:46:37;;;;;;;;;;;;;;;;;;4986265;28;20286;-62
2022/05/18 08:49:03;;;;;;;;;;;;;;;;;;4984401;28;20538;-61
2022/05/18 08:51:28;;;;;;;;;;;;;;;;;;4991213;28;19921;-61
2022/05/18 08:53:53;;;;;;;;;;;;;;;;;;4986335;28;20489;-61
2022/05/18 08:56:18;;;;;;;;;;;;;;;;;;4992701;28;19925;-61
2022/05/18 08:58:44;;;;;;;;;;;;;;;;;;4986836;28;19921;-61
2022/05/18 09:01:09;;;;;;;;;;;;;;;;;;4987948;28;19961;-61
2022/05/18 09:03:34;;;;;;;;;;;;;;;;;;4994486;28;19918;-61
2022/05/18 09:05:59;;;;;;;;;;;;;;;;;;5003102;28;20298;-61
2022/05/18 09:08:24;;;;;;;;;;;;;;;;;;4991427;28;19924;-60
2022/05/18 09:10:50;;;;;;;;;;;;;;;;;;4989860;28;20011;-61
2022/05/18 09:13:15;;;;;;;;;;;;;;;;;;4986203;28;20612;-61
2022/05/18 09:15:40;;;;;;;;;;;;;;;;;;4994466;28;20302;-60
2022/05/18 09:18:05;;;;;;;;;;;;;;;;;;4985066;28;19928;-62
2022/05/18 09:20:30;;;;;;;;;;;;;;;;;;4993672;28;19918;-61
2022/05/18 09:22:56;;;;;;;;;;;;;;;;;;4984157;28;20322;-61
2022/05/18 09:25:22;;;;;;;;;;;;;;;;;;4985975;28;19921;-61
2022/05/18 09:27:47;;;;;;;;;;;;;;;;;;5008356;28;19921;-60
2022/05/18 09:30:12;;;;;;;;;;;;;;;;;;4986496;28;19926;-60
2022/05/18 09:32:37;;;;;;;;;;;;;;;;;;4992067;28;19925;-61
2022/05/18 09:35:02;;;;;;;;;;;;;;;;;;4989690;28;20328;-61
2022/05/18 09:37:28;;;;;;;;;;;;;;;;;;4970152;28;19917;-61
2022/05/18 09:39:53;;;;;;;;;;;;;;;;;;5006764;28;19972;-60
2022/05/18 09:42:18;;;;;;;;;;;;;;;;;;4986226;28;19956;-60
2022/05/18 09:44:43;;;;;;;;;;;;;;;;;;4990978;28;19918;-62
2022/05/18 09:47:09;;;;;;;;;;;;;;;;;;5002758;28;20017;-60
2022/05/18 09:49:34;;;;;;;;;;;;;;;;;;4986221;28;19964;-62
2022/05/18 09:51:59;;;;;;;;;;;;;;;;;;4995748;28;19966;-62
2022/05/18 09:54:24;;;;;;;;;;;;;;;;;;4983725;28;19917;-61
2022/05/18 09:56:50;;;;;;;;;;;;;;;;;;4989840;28;19918;-62
2022/05/18 09:59:15;;;;;;;;;;;;;;;;;;4984030;28;19921;-63
2022/05/18 10:07:31;;;;;;;;;;;;;;;;;;4936857;28;19922;-62
2022/05/18 10:09:56;;;;;;;;;;;;;;;;;;4936033;28;19977;-61
2022/05/18 10:12:22;;;;;;;;;;;;;;;;;;4965697;28;20028;-61
2022/05/18 10:14:47;;;;;;;;;;;;;;;;;;4991402;28;20004;-62
2022/05/18 10:17:12;;;;;;;;;;;;;;;;;;4994924;28;20398;-62
2022/05/18 10:19:37;;;;;;;;;;;;;;;;;;4999542;28;20004;-62
2022/05/18 10:22:03;;;;;;;;;;;;;;;;;;5007034;28;20295;-62
2022/05/18 10:24:28;;;;;;;;;;;;;;;;;;4995323;28;19924;-63
2022/05/18 10:26:53;;;;;;;;;;;;;;;;;;4988931;28;19921;-62
2022/05/18 10:29:18;;;;;;;;;;;;;;;;;;4993109;28;19917;-62
2022/05/18 10:31:46;;;;;;;;;;;;;;;;;;4988545;28;19921;-61
2022/05/18 10:34:11;;;;;;;;;;;;;;;;;;4988782;28;20051;-61
2022/05/18 10:36:36;;;;;;;;;;;;;;;;;;4994596;28;19921;-61
2022/05/18 10:39:02;;;;;;;;;;;;;;;;;;4986872;28;19930;-61
2022/05/18 10:41:28;;;;;;;;;;;;;;;;;;4991690;28;19960;-61
2022/05/18 10:43:53;;;;;;;;;;;;;;;;;;4986973;28;20286;-61
2022/05/18 10:46:18;;;;;;;;;;;;;;;;;;4989665;28;19918;-62
2022/05/18 10:48:43;;;;;;;;;;;;;;;;;;4993100;28;19917;-61
2022/05/18 10:51:09;;;;;;;;;;;;;;;;;;4988972;28;19921;-61
2022/05/18 10:53:34;;;;;;;;;;;;;;;;;;4994188;28;19940;-60
2022/05/18 10:56:05;;;;;;;;;;;;;;;;;;4988784;28;19972;-61
2022/05/18 10:58:30;;;;;;;;;;;;;;;;;;4987971;28;20663;-62
2022/05/18 11:00:56;;;;;;;;;;;;;;;;;;4991337;28;20675;-61
2022/05/18 11:03:21;;;;;;;;;;;;;;;;;;4986146;28;19980;-62
2022/05/18 11:05:46;;;;;;;;;;;;;;;;;;4993639;28;20032;-61
2022/05/18 11:08:14;;;;;;;;;;;;;;;;;;4985794;28;19925;-61
2022/05/18 11:10:39;;;;;;;;;;;;;;;;;;4989613;28;19921;-62
2022/05/18 11:13:04;;;;;;;;;;;;;;;;;;4991431;28;20669;-62
2022/05/18 11:15:29;;;;;;;;;;;;;;;;;;4984553;28;19918;-61
2022/05/18 11:17:55;;;;;;;;;;;;;;;;;;4995244;28;19972;-62
2022/05/18 11:20:20;;;;;;;;;;;;;;;;;;4987766;28;19917;-62
2022/05/18 11:22:45;;;;;;;;;;;;;;;;;;4990088;28;19913;-62
2022/05/18 11:25:10;;;;;;;;;;;;;;;;;;4994695;28;20550;-62
2022/05/18 11:27:36;;;;;;;;;;;;;;;;;;4985885;28;20339;-62
2022/05/18 11:30:01;;;;;;;;;;;;;;;;;;4993967;28;19964;-63
2022/05/18 11:32:26;;;;;;;;;;;;;;;;;;4988305;28;19960;-63
2022/05/18 11:34:51;;;;;;;;;;;;;;;;;;4993557;28;19951;-62
2022/05/18 11:37:17;;;;;;;;;;;;;;;;;;4988605;28;19917;-63
2022/05/18 11:39:42;;;;;;;;;;;;;;;;;;5002199;28;19929;-62
2022/05/18 11:42:07;;;;;;;;;;;;;;;;;;4993432;28;20314;-63
2022/05/18 11:44:33;;;;;;;;;;;;;;;;;;4985322;28;20379;-64
2022/05/18 11:46:58;;;;;;;;;;;;;;;;;;4986251;28;19926;-63
2022/05/18 11:49:24;;;;;;;;;;;;;;;;;;4990208;28;20024;-63
2022/05/18 11:51:49;;;;;;;;;;;;;;;;;;4987897;28;19921;-63
2022/05/18 11:54:14;;;;;;;;;;;;;;;;;;4993348;28;19914;-63
2022/05/18 11:56:39;;;;;;;;;;;;;;;;;;4988425;28;19918;-62
2022/05/18 11:59:29;;;;;;;;;;;;;;;;;;;;;
2022/05/18 12:01:45;;;;;;;;;;;;;;;;;;4993375;28;20401;-63
2022/05/18 12:04:10;;;;;;;;;;;;;;;;;;4989168;28;19925;-62
2022/05/18 12:06:36;;;;;;;;;;;;;;;;;;4990982;28;19928;-64
2022/05/18 12:09:01;;;;;;;;;;;;;;;;;;5008424;28;19924;-63
2022/05/18 12:11:26;;;;;;;;;;;;;;;;;;4988525;28;20343;-63
2022/05/18 12:13:51;;;;;;;;;;;;;;;;;;4994797;28;20470;-63
2022/05/18 12:16:17;;;;;;;;;;;;;;;;;;4990150;28;20028;-63
2022/05/18 12:18:42;;;;;;;;;;;;;;;;;;4989827;28;19924;-64
2022/05/18 12:21:08;;;;;;;;;;;;;;;;;;4994372;28;19918;-63
2022/05/18 12:23:33;;;;;;;;;;;;;;;;;;4986787;28;19933;-64
2022/05/18 12:25:58;;;;;;;;;;;;;;;;;;4991496;28;19922;-63
2022/05/18 12:28:23;;;;;;;;;;;;;;;;;;4987989;28;20448;-63
2022/05/18 12:30:49;;;;;;;;;;;;;;;;;;4989784;28;20019;-64
2022/05/18 12:33:14;;;;;;;;;;;;;;;;;;4995504;28;19920;-63
2022/05/18 12:35:41;;;;;;;;;;;;;;;;;;4987899;28;19917;-63
2022/05/18 12:38:06;;;;;;;;;;;;;;;;;;4992102;28;20000;-63
2022/05/18 12:40:31;;;;;;;;;;;;;;;;;;4986570;28;19918;-63
2022/05/18 12:42:57;;;;;;;;;;;;;;;;;;5002770;28;19929;-63
2022/05/18 12:45:22;;;;;;;;;;;;;;;;;;4992778;28;20059;-63
2022/05/18 12:47:52;;;;;;;;;;;;;;;;;;4987402;28;20422;-64
2022/05/18 12:50:17;;;;;;;;;;;;;;;;;;4993238;28;19925;-63
2022/05/18 12:52:43;;;;;;;;;;;;;;;;;;4987669;28;20139;-64
2022/05/18 12:55:08;;;;;;;;;;;;;;;;;;4987801;28;20466;-64
2022/05/18 12:57:33;;;;;;;;;;;;;;;;;;4993776;28;20458;-64
2022/05/18 12:59:58;;;;;;;;;;;;;;;;;;4989676;28;19913;-63
2022/05/18 13:02:24;;;;;;;;;;;;;;;;;;4992651;28;19980;-64
2022/05/18 13:04:49;;;;;;;;;;;;;;;;;;5001204;28;19924;-64
2022/05/18 13:07:14;;;;;;;;;;;;;;;;;;5001001;28;19917;-64
2022/05/18 13:09:40;;;;;;;;;;;;;;;;;;4992115;28;20108;-63
2022/05/18 13:12:05;;;;;;;;;;;;;;;;;;4985238;28;20384;-64
2022/05/18 13:14:30;;;;;;;;;;;;;;;;;;4998912;28;20554;-63
2022/05/18 13:16:56;;;;;;;;;;;;;;;;;;4987808;28;20362;-63
2022/05/18 13:19:21;;;;;;;;;;;;;;;;;;4987391;28;20777;-63
2022/05/18 13:21:46;;;;;;;;;;;;;;;;;;4993047;28;20633;-63
2022/05/18 13:24:12;;;;;;;;;;;;;;;;;;4986503;28;19993;-63
2022/05/18 13:26:37;;;;;;;;;;;;;;;;;;5007651;28;19924;-64
2022/05/18 13:29:02;;;;;;;;;;;;;;;;;;4987034;28;19917;-63
2022/05/18 13:31:27;;;;;;;;;;;;;;;;;;4985816;28;19918;-64
2022/05/18 13:33:53;;;;;;;;;;;;;;;;;;5001577;28;19922;-64
2022/05/18 13:36:18;;;;;;;;;;;;;;;;;;4985529;28;19914;-63
2022/05/18 13:38:43;;;;;;;;;;;;;;;;;;4995105;28;19918;-63
2022/05/18 13:41:09;;;;;;;;;;;;;;;;;;4991756;28;19940;-64
2022/05/18 13:43:34;;;;;;;;;;;;;;;;;;4986474;28;19924;-63
2022/05/18 13:45:59;;;;;;;;;;;;;;;;;;4993476;28;20029;-63
2022/05/18 13:48:24;;;;;;;;;;;;;;;;;;4984488;28;19921;-63
2022/05/18 13:50:49;;;;;;;;;;;;;;;;;;4992369;28;20033;-64
2022/05/18 13:53:15;;;;;;;;;;;;;;;;;;4984557;28;20485;-64
2022/05/18 13:55:40;;;;;;;;;;;;;;;;;;4986770;28;20452;-64
2022/05/18 13:58:07;;;;;;;;;;;;;;;;;;4992491;28;20008;-64
2022/05/18 14:00:32;;;;;;;;;;;;;;;;;;4985241;28;19968;-64
2022/05/18 14:02:58;;;;;;;;;;;;;;;;;;4992491;28;19917;-64
2022/05/18 14:05:23;;;;;;;;;;;;;;;;;;4986278;28;19917;-64
2022/05/18 14:07:49;;;;;;;;;;;;;;;;;;4987852;28;20060;-64
2022/05/18 14:10:15;;;;;;;;;;;;;;;;;;4989944;28;19921;-63
2022/05/18 14:12:41;;;;;;;;;;;;;;;;;;4986331;28;20683;-63
2022/05/18 14:15:06;;;;;;;;;;;;;;;;;;4992523;28;19923;-64
2022/05/18 14:17:31;;;;;;;;;;;;;;;;;;4985747;28;20000;-64
2022/05/18 14:19:57;;;;;;;;;;;;;;;;;;4985832;28;20337;-63
2022/05/18 14:22:22;;;;;;;;;;;;;;;;;;4994361;28;19964;-64
2022/05/18 14:24:48;;;;;;;;;;;;;;;;;;4990030;28;19918;-63
2022/05/18 14:27:13;;;;;;;;;;;;;;;;;;4994508;28;19957;-63
2022/05/18 14:29:38;;;;;;;;;;;;;;;;;;4985174;28;19928;-63
2022/05/18 14:32:03;;;;;;;;;;;;;;;;;;4986513;28;20492;-63
2022/05/18 14:34:28;;;;;;;;;;;;;;;;;;4991335;28;19921;-63
2022/05/18 14:36:54;;;;;;;;;;;;;;;;;;4986708;28;19914;-64
2022/05/18 14:39:19;;;;;;;;;;;;;;;;;;4991582;28;20388;-65
2022/05/18 14:41:44;;;;;;;;;;;;;;;;;;4998549;28;19957;-64
2022/05/18 14:44:09;;;;;;;;;;;;;;;;;;4985599;28;20012;-64
2022/05/18 14:46:35;;;;;;;;;;;;;;;;;;4992228;28;19954;-64
2022/05/18 14:49:00;;;;;;;;;;;;;;;;;;4983554;28;19917;-64
2022/05/18 14:51:25;;;;;;;;;;;;;;;;;;4992152;28;19929;-62
2022/05/18 14:53:51;;;;;;;;;;;;;;;;;;4985327;28;19929;-64
2022/05/18 14:56:16;;;;;;;;;;;;;;;;;;4983771;28;19992;-62
2022/05/18 14:58:41;;;;;;;;;;;;;;;;;;4993145;28;20482;-63
2022/05/18 15:01:06;;;;;;;;;;;;;;;;;;4990473;28;19921;-63
2022/05/18 15:03:32;;;;;;;;;;;;;;;;;;4994684;28;19921;-63
2022/05/18 15:05:57;;;;;;;;;;;;;;;;;;4990442;28;19921;-64
2022/05/18 15:08:23;;;;;;;;;;;;;;;;;;4990339;28;20700;-63
2022/05/18 15:10:48;;;;;;;;;;;;;;;;;;4994822;28;20444;-63
2022/05/18 15:13:13;;;;;;;;;;;;;;;;;;5005673;28;20390;-63
2022/05/18 15:15:38;;;;;;;;;;;;;;;;;;4996649;28;19918;-64
2022/05/18 15:18:06;;;;;;;;;;;;;;;;;;4986941;28;19925;-63
2022/05/18 15:20:31;;;;;;;;;;;;;;;;;;4989005;28;20000;-63
2022/05/18 15:22:56;;;;;;;;;;;;;;;;;;4996341;28;20056;-63
2022/05/18 15:25:22;;;;;;;;;;;;;;;;;;4989226;28;19997;-63
2022/05/18 15:27:47;;;;;;;;;;;;;;;;;;4993558;28;19921;-63
2022/05/18 15:30:12;;;;;;;;;;;;;;;;;;4989287;28;19928;-62
2022/05/18 15:32:37;;;;;;;;;;;;;;;;;;5002813;28;20331;-62
2022/05/18 15:35:03;;;;;;;;;;;;;;;;;;4994816;28;19925;-62
2022/05/18 15:37:28;;;;;;;;;;;;;;;;;;4988379;28;19917;-62
2022/05/18 15:39:53;;;;;;;;;;;;;;;;;;4993753;28;19917;-62
2022/05/18 15:42:18;;;;;;;;;;;;;;;;;;5003447;28;19913;-63
2022/05/18 15:44:43;;;;;;;;;;;;;;;;;;4988120;28;20457;-63
2022/05/18 15:47:09;;;;;;;;;;;;;;;;;;4994033;28;19925;-63
2022/05/18 15:49:34;;;;;;;;;;;;;;;;;;4987272;28;19984;-63
2022/05/18 15:52:04;;;;;;;;;;;;;;;;;;4995124;28;20325;-62
2022/05/18 15:54:29;;;;;;;;;;;;;;;;;;4986869;28;19914;-63
2022/05/18 15:56:54;;;;;;;;;;;;;;;;;;5003388;28;19987;-63
2022/05/18 15:59:19;;;;;;;;;;;;;;;;;;4995349;28;19925;-62
2022/05/18 16:01:45;;;;;;;;;;;;;;;;;;4989861;28;19944;-62
2022/05/18 16:04:10;;;;;;;;;;;;;;;;;;4993336;28;19924;-62
2022/05/18 16:06:36;;;;;;;;;;;;;;;;;;4989721;28;19914;-62
2022/05/18 16:09:01;;;;;;;;;;;;;;;;;;4987307;28;19918;-62
2022/05/18 16:11:26;;;;;;;;;;;;;;;;;;5006498;28;19928;-62
2022/05/18 16:13:51;;;;;;;;;;;;;;;;;;5004649;28;19921;-62
2022/05/18 16:16:17;;;;;;;;;;;;;;;;;;4999810;28;19928;-62
2022/05/18 16:18:42;;;;;;;;;;;;;;;;;;4981422;28;19924;-62
2022/05/18 16:21:08;;;;;;;;;;;;;;;;;;4987002;28;19917;-62
2022/05/18 16:23:34;;;;;;;;;;;;;;;;;;4993524;28;19921;-62
2022/05/18 16:25:59;;;;;;;;;;;;;;;;;;4982331;28;19917;-62
2022/05/18 16:28:24;;;;;;;;;;;;;;;;;;4991283;28;20378;-62
2022/05/18 16:30:49;;;;;;;;;;;;;;;;;;4986529;28;19929;-63
2022/05/18 16:33:15;;;;;;;;;;;;;;;;;;4973374;28;19922;-62
2022/05/18 16:35:40;;;;;;;;;;;;;;;;;;4990012;28;19983;-62
2022/05/18 16:38:05;;;;;;;;;;;;;;;;;;4975209;28;19926;-62
2022/05/18 16:40:30;;;;;;;;;;;;;;;;;;4993077;28;19920;-63
2022/05/18 16:42:57;;;;;;;;;;;;;;;;;;4985225;28;19941;-63
2022/05/18 16:45:22;;;;;;;;;;;;;;;;;;4984092;28;19921;-62